sensor_id;sensor_type;location;lat;lon;timestamp;pressure;altitude;pressure_sealevel;temperature;humidity
47726;BME280;33483;48.294;16.388;2023-06-01T00:01:12;99794.88;;;12.92;100.00
47726;BME280;33483;48.294;16.388;2023-06-01T00:03:43;99795.75;;;12.87;100.00
47726;BME280;33483;48.294;16.388;2023-06-01T00:06:11;99797.91;;;12.81;100.00
47726;BME280;33483;48.294;16.388;2023-06-01T00:08:39;99800.25;;;12.77;100.00
47726;BME280;33483;48.294;16.388;2023-06-01T00:11:06;99793.50;;;12.73;100.00
47726;BME280;33483;48.294;16.388;2023-06-01T00:13:33;99798.88;;;12.71;100.00
47726;BME280;33483;48.294;16.388;2023-06-01T00:16:00;99794.38;;;12.68;100.00
47726;BME280;33483;48.294;16.388;2023-06-01T00:18:28;99792.13;;;12.66;100.00
47726;BME280;33483;48.294;16.388;2023-06-01T00:20:55;99798.56;;;12.61;100.00
47726;BME280;33483;48.294;16.388;2023-06-01T00:23:22;99790.75;;;12.60;100.00
47726;BME280;33483;48.294;16.388;2023-06-01T00:25:52;99787.22;;;12.59;100.00
47726;BME280;33483;48.294;16.388;2023-06-01T00:28:20;99790.22;;;12.61;100.00
47726;BME280;33483;48.294;16.388;2023-06-01T00:30:46;99789.66;;;12.63;100.00
47726;BME280;33483;48.294;16.388;2023-06-01T00:33:14;99783.06;;;12.66;100.00
47726;BME280;33483;48.294;16.388;2023-06-01T00:35:41;99780.34;;;12.73;100.00
47726;BME280;33483;48.294;16.388;2023-06-01T00:38:08;99781.94;;;12.82;100.00
47726;BME280;33483;48.294;16.388;2023-06-01T00:40:35;99780.13;;;12.84;100.00
47726;BME280;33483;48.294;16.388;2023-06-01T00:43:03;99786.47;;;12.85;100.00
47726;BME280;33483;48.294;16.388;2023-06-01T00:45:30;99784.19;;;12.83;100.00
47726;BME280;33483;48.294;16.388;2023-06-01T00:47:57;99786.47;;;12.85;100.00
47726;BME280;33483;48.294;16.388;2023-06-01T00:50:26;99786.03;;;12.81;100.00
47726;BME280;33483;48.294;16.388;2023-06-01T00:52:54;99785.25;;;12.93;100.00
47726;BME280;33483;48.294;16.388;2023-06-01T00:55:22;99787.38;;;13.00;100.00
47726;BME280;33483;48.294;16.388;2023-06-01T00:57:49;99777.53;;;12.99;100.00
47726;BME280;33483;48.294;16.388;2023-06-01T01:00:17;99781.06;;;13.00;100.00
47726;BME280;33483;48.294;16.388;2023-06-01T01:02:45;99777.00;;;13.01;100.00
47726;BME280;33483;48.294;16.388;2023-06-01T01:05:12;99765.69;;;12.99;100.00
47726;BME280;33483;48.294;16.388;2023-06-01T01:15:22;99768.03;;;12.95;100.00
47726;BME280;33483;48.294;16.388;2023-06-01T01:17:54;99765.47;;;12.97;100.00
47726;BME280;33483;48.294;16.388;2023-06-01T01:20:25;99762.38;;;12.87;100.00
47726;BME280;33483;48.294;16.388;2023-06-01T01:23:14;99758.31;;;12.88;100.00
47726;BME280;33483;48.294;16.388;2023-06-01T01:30:48;99766.84;;;12.90;100.00
47726;BME280;33483;48.294;16.388;2023-06-01T01:33:17;99764.06;;;12.90;100.00
47726;BME280;33483;48.294;16.388;2023-06-01T01:35:45;99757.22;;;12.91;100.00
47726;BME280;33483;48.294;16.388;2023-06-01T01:38:15;99755.00;;;12.90;100.00
47726;BME280;33483;48.294;16.388;2023-06-01T01:40:42;99754.78;;;12.75;100.00
47726;BME280;33483;48.294;16.388;2023-06-01T01:43:10;99754.72;;;12.67;100.00
47726;BME280;33483;48.294;16.388;2023-06-01T01:45:37;99760.94;;;12.60;100.00
47726;BME280;33483;48.294;16.388;2023-06-01T01:48:13;99748.63;;;12.56;100.00
47726;BME280;33483;48.294;16.388;2023-06-01T01:50:50;99749.81;;;12.60;100.00
47726;BME280;33483;48.294;16.388;2023-06-01T01:53:21;99744.66;;;12.64;100.00
47726;BME280;33483;48.294;16.388;2023-06-01T01:55:50;99752.25;;;12.64;100.00
47726;BME280;33483;48.294;16.388;2023-06-01T01:58:18;99750.84;;;12.70;100.00
47726;BME280;33483;48.294;16.388;2023-06-01T02:00:45;99749.56;;;12.71;100.00
47726;BME280;33483;48.294;16.388;2023-06-01T02:03:17;99752.16;;;12.69;100.00
47726;BME280;33483;48.294;16.388;2023-06-01T02:05:48;99736.84;;;12.63;100.00
47726;BME280;33483;48.294;16.388;2023-06-01T02:08:17;99739.00;;;12.57;100.00
47726;BME280;33483;48.294;16.388;2023-06-01T02:10:44;99735.03;;;12.52;100.00
47726;BME280;33483;48.294;16.388;2023-06-01T02:13:13;99730.34;;;12.47;100.00
47726;BME280;33483;48.294;16.388;2023-06-01T02:15:40;99737.19;;;12.46;100.00
47726;BME280;33483;48.294;16.388;2023-06-01T02:18:07;99730.97;;;12.40;100.00
47726;BME280;33483;48.294;16.388;2023-06-01T02:20:34;99734.09;;;12.36;100.00
47726;BME280;33483;48.294;16.388;2023-06-01T02:23:02;99733.69;;;12.32;100.00
47726;BME280;33483;48.294;16.388;2023-06-01T02:25:29;99738.47;;;12.19;100.00
47726;BME280;33483;48.294;16.388;2023-06-01T02:27:58;99739.97;;;12.07;100.00
47726;BME280;33483;48.294;16.388;2023-06-01T02:30:26;99733.88;;;12.08;100.00
47726;BME280;33483;48.294;16.388;2023-06-01T02:32:54;99731.22;;;12.03;100.00
47726;BME280;33483;48.294;16.388;2023-06-01T02:35:22;99734.31;;;11.99;100.00
47726;BME280;33483;48.294;16.388;2023-06-01T02:37:49;99729.25;;;11.98;100.00
47726;BME280;33483;48.294;16.388;2023-06-01T02:40:17;99735.34;;;11.96;100.00
47726;BME280;33483;48.294;16.388;2023-06-01T02:42:44;99727.03;;;11.96;100.00
47726;BME280;33483;48.294;16.388;2023-06-01T02:45:11;99730.88;;;11.93;100.00
47726;BME280;33483;48.294;16.388;2023-06-01T02:47:40;99736.19;;;11.91;100.00
47726;BME280;33483;48.294;16.388;2023-06-01T02:50:08;99739.97;;;11.94;100.00
47726;BME280;33483;48.294;16.388;2023-06-01T02:52:42;99728.09;;;11.93;100.00
47726;BME280;33483;48.294;16.388;2023-06-01T02:55:09;99721.69;;;11.85;100.00
47726;BME280;33483;48.294;16.388;2023-06-01T02:58:10;99733.19;;;11.89;100.00
47726;BME280;33483;48.294;16.388;2023-06-01T03:01:02;99722.41;;;11.86;100.00
47726;BME280;33483;48.294;16.388;2023-06-01T03:03:30;99732.25;;;11.87;100.00
47726;BME280;33483;48.294;16.388;2023-06-01T03:06:00;99723.16;;;11.86;100.00
47726;BME280;33483;48.294;16.388;2023-06-01T03:08:51;99732.47;;;11.89;100.00
47726;BME280;33483;48.294;16.388;2023-06-01T03:11:43;99735.75;;;11.87;100.00
47726;BME280;33483;48.294;16.388;2023-06-01T03:14:10;99747.53;;;11.93;100.00
47726;BME280;33483;48.294;16.388;2023-06-01T03:16:37;99736.09;;;11.97;100.00
47726;BME280;33483;48.294;16.388;2023-06-01T03:19:13;99743.59;;;12.02;100.00
47726;BME280;33483;48.294;16.388;2023-06-01T03:21:43;99746.59;;;12.04;100.00
47726;BME280;33483;48.294;16.388;2023-06-01T03:24:11;99744.25;;;12.08;100.00
47726;BME280;33483;48.294;16.388;2023-06-01T03:26:38;99737.53;;;12.16;100.00
47726;BME280;33483;48.294;16.388;2023-06-01T03:29:06;99741.91;;;12.25;100.00
47726;BME280;33483;48.294;16.388;2023-06-01T03:31:35;99747.97;;;12.36;100.00
47726;BME280;33483;48.294;16.388;2023-06-01T03:34:05;99748.72;;;12.50;100.00
47726;BME280;33483;48.294;16.388;2023-06-01T03:36:33;99750.16;;;12.90;100.00
47726;BME280;33483;48.294;16.388;2023-06-01T03:39:06;99749.72;;;13.95;100.00
47726;BME280;33483;48.294;16.388;2023-06-01T03:41:36;99756.25;;;14.89;100.00
47726;BME280;33483;48.294;16.388;2023-06-01T03:44:04;99754.59;;;15.52;100.00
47726;BME280;33483;48.294;16.388;2023-06-01T03:46:31;99754.97;;;16.16;100.00
47726;BME280;33483;48.294;16.388;2023-06-01T03:48:59;99766.66;;;16.60;99.92
47726;BME280;33483;48.294;16.388;2023-06-01T03:51:26;99767.44;;;17.00;93.93
47726;BME280;33483;48.294;16.388;2023-06-01T03:53:56;99762.84;;;17.27;86.65
47726;BME280;33483;48.294;16.388;2023-06-01T03:56:27;99763.50;;;17.43;82.10
47726;BME280;33483;48.294;16.388;2023-06-01T03:58:58;99762.28;;;17.61;77.87
47726;BME280;33483;48.294;16.388;2023-06-01T04:01:25;99761.19;;;18.06;73.98
47726;BME280;33483;48.294;16.388;2023-06-01T04:03:56;99759.84;;;17.33;79.63
47726;BME280;33483;48.294;16.388;2023-06-01T04:06:24;99752.69;;;16.45;89.92
47726;BME280;33483;48.294;16.388;2023-06-01T04:08:51;99750.31;;;16.11;96.80
47726;BME280;33483;48.294;16.388;2023-06-01T04:11:22;99747.53;;;16.11;99.24
47726;BME280;33483;48.294;16.388;2023-06-01T04:13:51;99744.56;;;15.71;100.00
47726;BME280;33483;48.294;16.388;2023-06-01T04:16:21;99736.66;;;15.25;100.00
47726;BME280;33483;48.294;16.388;2023-06-01T04:18:51;99746.81;;;14.92;100.00
47726;BME280;33483;48.294;16.388;2023-06-01T04:21:24;99740.72;;;15.24;100.00
47726;BME280;33483;48.294;16.388;2023-06-01T04:23:52;99747.78;;;15.10;100.00
47726;BME280;33483;48.294;16.388;2023-06-01T04:26:20;99737.53;;;15.12;100.00
47726;BME280;33483;48.294;16.388;2023-06-01T04:28:48;99741.94;;;15.51;100.00
47726;BME280;33483;48.294;16.388;2023-06-01T04:31:16;99740.75;;;15.31;100.00
47726;BME280;33483;48.294;16.388;2023-06-01T04:33:45;99737.00;;;15.06;100.00
47726;BME280;33483;48.294;16.388;2023-06-01T04:36:20;99739.94;;;15.08;100.00
47726;BME280;33483;48.294;16.388;2023-06-01T04:38:57;99737.75;;;15.14;100.00
47726;BME280;33483;48.294;16.388;2023-06-01T04:41:25;99735.34;;;15.26;100.00
47726;BME280;33483;48.294;16.388;2023-06-01T04:43:53;99730.13;;;15.22;100.00
47726;BME280;33483;48.294;16.388;2023-06-01T04:46:23;99743.53;;;15.31;100.00
47726;BME280;33483;48.294;16.388;2023-06-01T04:48:56;99734.84;;;15.50;100.00
47726;BME280;33483;48.294;16.388;2023-06-01T04:51:26;99738.22;;;15.56;100.00
47726;BME280;33483;48.294;16.388;2023-06-01T04:53:54;99736.75;;;15.77;100.00
47726;BME280;33483;48.294;16.388;2023-06-01T04:56:22;99741.94;;;15.89;100.00
47726;BME280;33483;48.294;16.388;2023-06-01T04:58:56;99745.69;;;15.99;100.00
47726;BME280;33483;48.294;16.388;2023-06-01T05:01:27;99745.19;;;17.42;96.90
47726;BME280;33483;48.294;16.388;2023-06-01T05:03:59;99748.63;;;19.26;72.14
47726;BME280;33483;48.294;16.388;2023-06-01T05:06:27;99742.69;;;19.22;68.91
47726;BME280;33483;48.294;16.388;2023-06-01T05:08:57;99745.25;;;18.67;70.86
47726;BME280;33483;48.294;16.388;2023-06-01T05:11:24;99746.81;;;18.77;71.08
47726;BME280;33483;48.294;16.388;2023-06-01T05:13:53;99754.75;;;19.15;68.36
47726;BME280;33483;48.294;16.388;2023-06-01T05:16:25;99751.31;;;19.07;68.39
47726;BME280;33483;48.294;16.388;2023-06-01T05:18:53;99756.19;;;20.51;61.23
47726;BME280;33483;48.294;16.388;2023-06-01T05:21:20;99761.97;;;21.70;57.90
47726;BME280;33483;48.294;16.388;2023-06-01T05:23:50;99764.56;;;22.81;52.10
47726;BME280;33483;48.294;16.388;2023-06-01T05:26:17;99764.72;;;23.83;50.67
47726;BME280;33483;48.294;16.388;2023-06-01T05:28:44;99754.81;;;23.05;50.65
47726;BME280;33483;48.294;16.388;2023-06-01T05:31:12;99756.59;;;21.34;56.29
47726;BME280;33483;48.294;16.388;2023-06-01T05:33:53;99748.78;;;20.56;59.30
47726;BME280;33483;48.294;16.388;2023-06-01T05:36:19;99750.91;;;20.09;62.70
47726;BME280;33483;48.294;16.388;2023-06-01T05:38:47;99751.69;;;20.20;63.11
47726;BME280;33483;48.294;16.388;2023-06-01T05:41:16;99744.63;;;20.47;62.00
47726;BME280;33483;48.294;16.388;2023-06-01T05:43:44;99741.78;;;20.28;61.93
47726;BME280;33483;48.294;16.388;2023-06-01T05:46:11;99742.59;;;19.92;62.79
47726;BME280;33483;48.294;16.388;2023-06-01T05:48:39;99734.97;;;19.76;63.89
47726;BME280;33483;48.294;16.388;2023-06-01T05:51:10;99737.72;;;20.02;62.84
47726;BME280;33483;48.294;16.388;2023-06-01T05:53:38;99740.28;;;20.17;62.91
47726;BME280;33483;48.294;16.388;2023-06-01T05:56:05;99732.09;;;20.12;62.35
47726;BME280;33483;48.294;16.388;2023-06-01T05:58:33;99743.72;;;19.89;63.40
47726;BME280;33483;48.294;16.388;2023-06-01T06:01:00;99746.91;;;19.67;65.51
47726;BME280;33483;48.294;16.388;2023-06-01T06:03:33;99752.09;;;19.70;66.25
47726;BME280;33483;48.294;16.388;2023-06-01T06:06:00;99745.78;;;19.79;66.94
47726;BME280;33483;48.294;16.388;2023-06-01T06:08:27;99747.13;;;19.88;65.19
47726;BME280;33483;48.294;16.388;2023-06-01T06:10:57;99747.78;;;19.96;66.04
47726;BME280;33483;48.294;16.388;2023-06-01T06:13:24;99748.09;;;19.64;64.83
47726;BME280;33483;48.294;16.388;2023-06-01T06:15:51;99748.75;;;19.81;64.86
47726;BME280;33483;48.294;16.388;2023-06-01T06:18:18;99756.00;;;19.75;64.06
47726;BME280;33483;48.294;16.388;2023-06-01T06:20:46;99756.09;;;20.13;61.16
47726;BME280;33483;48.294;16.388;2023-06-01T06:23:14;99754.53;;;20.29;60.32
47726;BME280;33483;48.294;16.388;2023-06-01T06:25:41;99758.00;;;20.10;60.16
47726;BME280;33483;48.294;16.388;2023-06-01T06:28:09;99758.13;;;19.93;63.05
47726;BME280;33483;48.294;16.388;2023-06-01T06:30:37;99748.03;;;19.90;64.52
47726;BME280;33483;48.294;16.388;2023-06-01T06:33:04;99752.97;;;19.63;62.58
47726;BME280;33483;48.294;16.388;2023-06-01T06:35:36;99754.13;;;19.96;62.40
47726;BME280;33483;48.294;16.388;2023-06-01T06:38:04;99754.28;;;19.98;62.87
47726;BME280;33483;48.294;16.388;2023-06-01T06:40:31;99762.38;;;20.31;61.28
47726;BME280;33483;48.294;16.388;2023-06-01T06:43:01;99755.16;;;20.47;56.86
47726;BME280;33483;48.294;16.388;2023-06-01T06:45:28;99765.09;;;21.05;57.35
47726;BME280;33483;48.294;16.388;2023-06-01T06:47:55;99762.44;;;21.97;53.49
47726;BME280;33483;48.294;16.388;2023-06-01T06:50:22;99769.41;;;22.26;51.91
47726;BME280;33483;48.294;16.388;2023-06-01T06:52:49;99765.47;;;22.83;49.06
47726;BME280;33483;48.294;16.388;2023-06-01T06:55:16;99775.03;;;23.78;46.77
47726;BME280;33483;48.294;16.388;2023-06-01T06:57:44;99775.91;;;25.89;43.60
47726;BME280;33483;48.294;16.388;2023-06-01T07:00:11;99785.44;;;27.33;40.44
47726;BME280;33483;48.294;16.388;2023-06-01T07:02:42;99790.41;;;27.80;37.95
47726;BME280;33483;48.294;16.388;2023-06-01T07:05:11;99796.00;;;28.40;34.81
47726;BME280;33483;48.294;16.388;2023-06-01T07:07:40;99784.63;;;28.91;35.08
47726;BME280;33483;48.294;16.388;2023-06-01T07:10:07;99790.03;;;29.90;31.50
47726;BME280;33483;48.294;16.388;2023-06-01T07:12:34;99791.50;;;30.30;32.10
47726;BME280;33483;48.294;16.388;2023-06-01T07:15:01;99796.38;;;30.08;30.96
47726;BME280;33483;48.294;16.388;2023-06-01T07:17:29;99790.63;;;30.26;31.50
47726;BME280;33483;48.294;16.388;2023-06-01T07:19:56;99798.72;;;31.16;30.18
47726;BME280;33483;48.294;16.388;2023-06-01T07:22:23;99795.81;;;31.14;31.65
47726;BME280;33483;48.294;16.388;2023-06-01T07:24:53;99795.19;;;31.39;31.65
47726;BME280;33483;48.294;16.388;2023-06-01T07:27:20;99793.59;;;31.12;31.45
47726;BME280;33483;48.294;16.388;2023-06-01T07:29:47;99800.97;;;31.41;27.66
47726;BME280;33483;48.294;16.388;2023-06-01T07:32:17;99794.75;;;31.72;29.31
47726;BME280;33483;48.294;16.388;2023-06-01T07:34:47;99799.19;;;31.77;29.43
47726;BME280;33483;48.294;16.388;2023-06-01T07:37:14;99803.38;;;31.27;29.15
47726;BME280;33483;48.294;16.388;2023-06-01T07:39:44;99799.91;;;31.52;27.59
47726;BME280;33483;48.294;16.388;2023-06-01T07:42:11;99796.28;;;32.24;28.47
47726;BME280;33483;48.294;16.388;2023-06-01T07:44:38;99806.69;;;32.90;25.92
47726;BME280;33483;48.294;16.388;2023-06-01T07:47:06;99804.88;;;33.03;26.64
47726;BME280;33483;48.294;16.388;2023-06-01T07:49:33;99804.44;;;32.87;26.94
47726;BME280;33483;48.294;16.388;2023-06-01T07:52:06;99802.69;;;32.74;26.46
47726;BME280;33483;48.294;16.388;2023-06-01T07:54:34;99796.06;;;32.16;27.98
47726;BME280;33483;48.294;16.388;2023-06-01T07:57:03;99798.78;;;31.63;28.90
47726;BME280;33483;48.294;16.388;2023-06-01T07:59:31;99792.00;;;31.52;30.24
47726;BME280;33483;48.294;16.388;2023-06-01T08:01:58;99790.03;;;32.32;30.55
47726;BME280;33483;48.294;16.388;2023-06-01T08:04:27;99790.91;;;33.19;26.70
47726;BME280;33483;48.294;16.388;2023-06-01T08:07:01;99799.13;;;32.75;27.48
47726;BME280;33483;48.294;16.388;2023-06-01T08:09:30;99794.91;;;32.51;27.66
47726;BME280;33483;48.294;16.388;2023-06-01T08:11:58;99797.09;;;34.02;24.27
47726;BME280;33483;48.294;16.388;2023-06-01T08:14:25;99790.06;;;34.45;23.77
47726;BME280;33483;48.294;16.388;2023-06-01T08:16:52;99791.25;;;34.34;24.88
47726;BME280;33483;48.294;16.388;2023-06-01T08:19:19;99785.97;;;34.21;24.18
47726;BME280;33483;48.294;16.388;2023-06-01T08:21:47;99786.03;;;34.25;24.87
47726;BME280;33483;48.294;16.388;2023-06-01T08:24:14;99783.59;;;34.47;25.19
47726;BME280;33483;48.294;16.388;2023-06-01T08:26:43;99784.41;;;34.51;23.32
47726;BME280;33483;48.294;16.388;2023-06-01T08:29:10;99778.31;;;33.97;24.74
47726;BME280;33483;48.294;16.388;2023-06-01T08:31:39;99777.13;;;33.77;25.95
47726;BME280;33483;48.294;16.388;2023-06-01T08:34:08;99773.63;;;33.80;25.71
47726;BME280;33483;48.294;16.388;2023-06-01T08:36:35;99769.31;;;33.48;25.72
47726;BME280;33483;48.294;16.388;2023-06-01T08:39:19;99767.22;;;33.50;26.77
47726;BME280;33483;48.294;16.388;2023-06-01T08:44:26;99777.56;;;33.02;25.67
47726;BME280;33483;48.294;16.388;2023-06-01T08:46:54;99767.59;;;34.02;26.82
47726;BME280;33483;48.294;16.388;2023-06-01T08:49:22;99771.81;;;33.97;24.07
47726;BME280;33483;48.294;16.388;2023-06-01T08:51:51;99769.63;;;34.33;23.86
47726;BME280;33483;48.294;16.388;2023-06-01T08:54:24;99766.75;;;33.62;24.90
47726;BME280;33483;48.294;16.388;2023-06-01T08:56:56;99765.78;;;33.51;25.85
47726;BME280;33483;48.294;16.388;2023-06-01T08:59:24;99761.69;;;33.94;25.10
47726;BME280;33483;48.294;16.388;2023-06-01T09:01:54;99759.84;;;34.46;26.14
47726;BME280;33483;48.294;16.388;2023-06-01T09:04:21;99768.81;;;34.27;23.66
47726;BME280;33483;48.294;16.388;2023-06-01T09:06:48;99751.41;;;34.58;25.11
47726;BME280;33483;48.294;16.388;2023-06-01T09:09:19;99756.94;;;34.44;22.51
47726;BME280;33483;48.294;16.388;2023-06-01T09:11:46;99754.44;;;34.29;23.36
47726;BME280;33483;48.294;16.388;2023-06-01T09:14:21;99751.97;;;34.11;24.34
47726;BME280;33483;48.294;16.388;2023-06-01T09:16:49;99744.66;;;34.44;22.79
47726;BME280;33483;48.294;16.388;2023-06-01T09:19:17;99747.66;;;34.50;23.83
47726;BME280;33483;48.294;16.388;2023-06-01T09:21:59;99748.00;;;34.30;22.23
47726;BME280;33483;48.294;16.388;2023-06-01T09:24:26;99740.94;;;34.37;23.24
47726;BME280;33483;48.294;16.388;2023-06-01T09:26:59;99732.81;;;33.90;24.35
47726;BME280;33483;48.294;16.388;2023-06-01T09:29:30;99731.63;;;34.01;25.41
47726;BME280;33483;48.294;16.388;2023-06-01T09:31:57;99725.63;;;34.27;23.23
47726;BME280;33483;48.294;16.388;2023-06-01T09:34:26;99736.94;;;33.81;22.60
47726;BME280;33483;48.294;16.388;2023-06-01T09:36:54;99730.38;;;33.43;24.31
47726;BME280;33483;48.294;16.388;2023-06-01T09:39:22;99731.72;;;32.78;25.04
47726;BME280;33483;48.294;16.388;2023-06-01T09:41:56;99727.47;;;32.52;25.49
47726;BME280;33483;48.294;16.388;2023-06-01T09:44:33;99731.72;;;32.23;25.59
47726;BME280;33483;48.294;16.388;2023-06-01T09:47:01;99724.03;;;32.57;25.87
47726;BME280;33483;48.294;16.388;2023-06-01T09:49:36;99720.94;;;33.38;23.90
47726;BME280;33483;48.294;16.388;2023-06-01T09:54:41;99711.47;;;33.34;24.61
47726;BME280;33483;48.294;16.388;2023-06-01T09:57:09;99725.94;;;33.69;22.84
47726;BME280;33483;48.294;16.388;2023-06-01T09:59:42;99726.88;;;33.80;23.22
47726;BME280;33483;48.294;16.388;2023-06-01T10:02:21;99720.41;;;33.46;23.57
47726;BME280;33483;48.294;16.388;2023-06-01T10:04:53;99717.22;;;33.00;23.66
47726;BME280;33483;48.294;16.388;2023-06-01T10:07:21;99708.72;;;33.06;24.11
47726;BME280;33483;48.294;16.388;2023-06-01T10:09:56;99713.41;;;33.55;23.21
47726;BME280;33483;48.294;16.388;2023-06-01T10:12:25;99702.03;;;32.68;23.91
47726;BME280;33483;48.294;16.388;2023-06-01T10:14:52;99704.56;;;32.83;27.58
47726;BME280;33483;48.294;16.388;2023-06-01T10:17:20;99707.88;;;32.72;25.09
47726;BME280;33483;48.294;16.388;2023-06-01T10:19:47;99713.09;;;32.24;25.44
47726;BME280;33483;48.294;16.388;2023-06-01T10:22:15;99701.63;;;32.52;24.26
47726;BME280;33483;48.294;16.388;2023-06-01T10:24:43;99694.50;;;32.53;24.36
47726;BME280;33483;48.294;16.388;2023-06-01T10:27:27;99692.75;;;32.99;25.41
47726;BME280;33483;48.294;16.388;2023-06-01T10:29:59;99691.13;;;32.62;25.08
47726;BME280;33483;48.294;16.388;2023-06-01T10:32:45;99692.63;;;32.63;24.13
47726;BME280;33483;48.294;16.388;2023-06-01T10:40:34;99689.13;;;32.96;24.56
47726;BME280;33483;48.294;16.388;2023-06-01T10:43:01;99687.63;;;32.38;25.15
47726;BME280;33483;48.294;16.388;2023-06-01T10:45:36;99694.75;;;32.92;23.91
47726;BME280;33483;48.294;16.388;2023-06-01T10:48:08;99679.28;;;32.46;25.35
47726;BME280;33483;48.294;16.388;2023-06-01T10:50:38;99676.84;;;32.64;25.88
47726;BME280;33483;48.294;16.388;2023-06-01T10:56:17;99679.22;;;32.44;23.64
47726;BME280;33483;48.294;16.388;2023-06-01T10:58:45;99676.59;;;32.84;23.98
47726;BME280;33483;48.294;16.388;2023-06-01T11:01:18;99670.69;;;32.48;23.93
47726;BME280;33483;48.294;16.388;2023-06-01T11:03:46;99663.06;;;32.31;24.61
47726;BME280;33483;48.294;16.388;2023-06-01T11:06:28;99661.47;;;31.71;27.21
47726;BME280;33483;48.294;16.388;2023-06-01T11:08:56;99656.00;;;31.55;26.55
47726;BME280;33483;48.294;16.388;2023-06-01T11:14:12;99643.41;;;31.66;28.62
47726;BME280;33483;48.294;16.388;2023-06-01T11:16:40;99642.31;;;32.05;26.24
47726;BME280;33483;48.294;16.388;2023-06-01T11:19:10;99649.41;;;31.51;26.12
47726;BME280;33483;48.294;16.388;2023-06-01T11:21:43;99637.59;;;31.88;27.95
47726;BME280;33483;48.294;16.388;2023-06-01T11:28:58;99642.25;;;31.03;27.70
47726;BME280;33483;48.294;16.388;2023-06-01T11:36:18;99631.44;;;30.77;27.05
47726;BME280;33483;48.294;16.388;2023-06-01T11:38:47;99623.66;;;30.58;27.98
47726;BME280;33483;48.294;16.388;2023-06-01T11:41:14;99620.25;;;30.40;26.86
47726;BME280;33483;48.294;16.388;2023-06-01T11:43:41;99606.03;;;30.01;29.66
47726;BME280;33483;48.294;16.388;2023-06-01T11:46:08;99605.50;;;30.07;29.51
47726;BME280;33483;48.294;16.388;2023-06-01T11:49:04;99599.28;;;29.71;29.13
47726;BME280;33483;48.294;16.388;2023-06-01T11:51:39;99600.25;;;29.77;28.55
47726;BME280;33483;48.294;16.388;2023-06-01T11:54:10;99593.25;;;29.63;30.80
47726;BME280;33483;48.294;16.388;2023-06-01T11:56:39;99586.91;;;28.88;29.70
47726;BME280;33483;48.294;16.388;2023-06-01T11:59:08;99588.16;;;28.83;30.11
47726;BME280;33483;48.294;16.388;2023-06-01T12:01:41;99587.78;;;28.93;29.79
47726;BME280;33483;48.294;16.388;2023-06-01T12:04:15;99585.47;;;28.87;30.79
47726;BME280;33483;48.294;16.388;2023-06-01T12:06:43;99591.94;;;28.52;31.07
47726;BME280;33483;48.294;16.388;2023-06-01T12:09:12;99591.84;;;28.15;29.65
47726;BME280;33483;48.294;16.388;2023-06-01T12:11:39;99587.22;;;27.91;29.98
47726;BME280;33483;48.294;16.388;2023-06-01T12:14:10;99580.88;;;27.59;31.56
47726;BME280;33483;48.294;16.388;2023-06-01T12:19:21;99568.59;;;27.54;30.36
47726;BME280;33483;48.294;16.388;2023-06-01T12:21:49;99560.53;;;27.49;30.98
47726;BME280;33483;48.294;16.388;2023-06-01T12:24:18;99557.28;;;27.56;30.39
47726;BME280;33483;48.294;16.388;2023-06-01T12:26:45;99555.09;;;27.55;30.33
47726;BME280;33483;48.294;16.388;2023-06-01T12:29:13;99557.50;;;27.45;30.46
47726;BME280;33483;48.294;16.388;2023-06-01T12:31:51;99540.41;;;27.45;31.44
47726;BME280;33483;48.294;16.388;2023-06-01T12:34:19;99549.09;;;27.64;30.79
47726;BME280;33483;48.294;16.388;2023-06-01T12:36:46;99540.59;;;27.82;32.14
47726;BME280;33483;48.294;16.388;2023-06-01T12:39:24;99544.63;;;27.93;33.78
47726;BME280;33483;48.294;16.388;2023-06-01T12:42:00;99537.16;;;27.86;32.56
47726;BME280;33483;48.294;16.388;2023-06-01T12:44:28;99534.63;;;27.76;31.65
47726;BME280;33483;48.294;16.388;2023-06-01T12:46:58;99530.25;;;27.91;31.87
47726;BME280;33483;48.294;16.388;2023-06-01T12:49:26;99531.09;;;27.93;30.73
47726;BME280;33483;48.294;16.388;2023-06-01T12:51:55;99520.72;;;27.84;32.80
47726;BME280;33483;48.294;16.388;2023-06-01T12:54:23;99508.53;;;27.99;33.51
47726;BME280;33483;48.294;16.388;2023-06-01T12:56:52;99511.31;;;27.97;33.97
47726;BME280;33483;48.294;16.388;2023-06-01T12:59:22;99510.34;;;28.08;32.75
47726;BME280;33483;48.294;16.388;2023-06-01T13:01:50;99508.22;;;27.91;32.52
47726;BME280;33483;48.294;16.388;2023-06-01T13:04:17;99506.63;;;27.88;32.44
47726;BME280;33483;48.294;16.388;2023-06-01T13:06:44;99498.06;;;27.70;34.02
47726;BME280;33483;48.294;16.388;2023-06-01T13:09:12;99490.34;;;27.73;34.49
47726;BME280;33483;48.294;16.388;2023-06-01T13:11:40;99493.44;;;27.61;32.43
47726;BME280;33483;48.294;16.388;2023-06-01T13:14:08;99493.78;;;27.87;32.21
47726;BME280;33483;48.294;16.388;2023-06-01T13:16:37;99486.78;;;27.90;32.55
47726;BME280;33483;48.294;16.388;2023-06-01T13:19:04;99486.91;;;27.59;33.14
47726;BME280;33483;48.294;16.388;2023-06-01T13:21:32;99477.84;;;27.29;33.47
47726;BME280;33483;48.294;16.388;2023-06-01T13:24:00;99482.97;;;27.33;33.59
47726;BME280;33483;48.294;16.388;2023-06-01T13:26:28;99488.97;;;27.08;33.52
47726;BME280;33483;48.294;16.388;2023-06-01T13:28:55;99479.81;;;27.09;32.77
47726;BME280;33483;48.294;16.388;2023-06-01T13:31:22;99476.66;;;27.19;33.21
47726;BME280;33483;48.294;16.388;2023-06-01T13:33:50;99472.03;;;27.27;32.95
47726;BME280;33483;48.294;16.388;2023-06-01T13:36:17;99464.59;;;27.36;33.10
47726;BME280;33483;48.294;16.388;2023-06-01T13:38:44;99459.84;;;27.25;33.84
47726;BME280;33483;48.294;16.388;2023-06-01T13:41:11;99457.06;;;27.27;32.89